createdAt,value
2022-08-07T00:01:12.633Z,1.60
2022-08-07T00:03:51.242Z,1.80
2022-08-07T00:06:17.957Z,1.60
2022-08-07T00:08:55.836Z,1.75
2022-08-07T00:11:29.932Z,1.80
2022-08-07T00:13:59.826Z,1.67
2022-08-07T00:16:28.141Z,1.95
2022-08-07T00:18:55.032Z,1.65
2022-08-07T00:21:57.386Z,1.73
2022-08-07T00:24:09.027Z,1.67
2022-08-07T00:26:58.824Z,1.70
2022-08-07T00:29:23.734Z,1.77
2022-08-07T00:31:50.351Z,1.48
2022-08-07T00:34:17.999Z,1.70
2022-08-07T00:36:48.335Z,1.50
2022-08-07T00:39:16.559Z,1.52
2022-08-07T00:41:53.708Z,1.80
2022-08-07T00:44:29.654Z,1.67
2022-08-07T00:46:56.442Z,1.85
2022-08-07T00:50:16.804Z,1.80
2022-08-07T00:52:10.127Z,2.00
2022-08-07T00:54:40.604Z,1.95
2022-08-07T00:57:08.960Z,1.80
2022-08-07T00:59:36.733Z,1.63
2022-08-07T01:02:09.013Z,1.70
2022-08-07T01:07:21.994Z,1.73
2022-08-07T01:10:04.658Z,1.90
2022-08-07T01:12:38.687Z,1.60
2022-08-07T01:15:07.667Z,1.80
2022-08-07T01:17:40.029Z,2.03
2022-08-07T01:20:09.134Z,1.90
2022-08-07T01:22:41.486Z,1.90
2022-08-07T01:25:53.974Z,2.42
2022-08-07T01:28:08.358Z,1.60
2022-08-07T01:30:39.081Z,1.77
2022-08-07T01:33:05.726Z,1.90
2022-08-07T01:35:53.613Z,1.70
2022-08-07T01:38:24.812Z,1.88
2022-08-07T01:40:54.761Z,2.05
2022-08-07T01:43:23.013Z,1.70
2022-08-07T01:45:54.548Z,2.00
2022-08-07T01:48:30.198Z,1.90
2022-08-07T01:51:24.331Z,1.75
2022-08-07T01:54:11.926Z,1.80
2022-08-07T01:56:49.405Z,1.90
2022-08-07T01:59:23.008Z,1.75
2022-08-07T02:02:02.240Z,2.13
2022-08-07T02:04:38.631Z,1.90
2022-08-07T02:07:08.223Z,2.05
2022-08-07T02:09:53.471Z,1.88
2022-08-07T02:12:30.879Z,1.98
2022-08-07T02:15:00.827Z,2.03
2022-08-07T02:17:31.834Z,2.03
2022-08-07T02:20:04.629Z,2.13
2022-08-07T02:22:38.358Z,2.15
2022-08-07T02:25:13.738Z,2.25
2022-08-07T02:27:52.310Z,1.92
2022-08-07T02:30:20.332Z,1.90
2022-08-07T02:33:03.999Z,1.85
2022-08-07T02:36:30.302Z,1.85
2022-08-07T02:41:03.853Z,2.13
2022-08-07T02:43:31.731Z,2.03
2022-08-07T02:46:02.439Z,1.98
2022-08-07T02:48:29.908Z,1.95
2022-08-07T02:50:59.246Z,2.10
2022-08-07T02:53:38.604Z,2.10
2022-08-07T02:56:17.432Z,2.08
2022-08-07T02:58:50.114Z,2.08
2022-08-07T03:01:36.106Z,2.20
2022-08-07T03:04:12.384Z,2.03
2022-08-07T03:06:41.180Z,2.30
2022-08-07T03:09:11.056Z,1.95
2022-08-07T03:11:52.273Z,2.13
2022-08-07T03:14:25.963Z,2.08
2022-08-07T03:16:55.318Z,2.47
2022-08-07T03:19:22.712Z,2.25
2022-08-07T03:21:51.187Z,2.03
2022-08-07T03:24:27.473Z,2.45
2022-08-07T03:27:00.251Z,2.38
2022-08-07T03:29:32.125Z,2.10
2022-08-07T03:32:02.648Z,2.10
2022-08-07T03:34:32.987Z,2.42
2022-08-07T03:37:12.415Z,2.60
2022-08-07T03:39:56.651Z,2.33
2022-08-07T03:42:29.089Z,2.20
2022-08-07T03:44:57.842Z,2.55
2022-08-07T03:47:26.001Z,2.40
2022-08-07T03:49:56.552Z,2.50
2022-08-07T03:52:26.917Z,2.27
2022-08-07T03:54:59.205Z,2.67
2022-08-07T03:58:34.532Z,2.35
2022-08-07T04:00:30.661Z,2.15
2022-08-07T04:03:03.888Z,2.42
2022-08-07T04:05:39.742Z,2.30
2022-08-07T04:08:11.069Z,2.45
2022-08-07T04:10:38.671Z,2.50
2022-08-07T04:13:07.346Z,2.20
2022-08-07T04:15:43.280Z,2.20
2022-08-07T04:18:56.445Z,2.40
2022-08-07T04:21:00.405Z,2.40
2022-08-07T04:23:43.540Z,2.30
2022-08-07T04:26:14.779Z,2.60
2022-08-07T04:28:45.108Z,2.25
2022-08-07T04:31:20.085Z,2.47
2022-08-07T04:33:59.688Z,2.50
2022-08-07T04:36:26.521Z,2.25
2022-08-07T04:38:53.538Z,2.40
2022-08-07T04:41:20.605Z,2.60
2022-08-07T04:44:09.619Z,2.30
2022-08-07T04:47:04.591Z,2.40
2022-08-07T04:49:37.772Z,2.10
2022-08-07T04:52:25.199Z,2.53
2022-08-07T04:54:59.734Z,2.10
2022-08-07T04:58:09.385Z,1.95
2022-08-07T05:00:24.304Z,2.03
2022-08-07T05:03:31.137Z,2.00
2022-08-07T05:05:58.939Z,2.08
2022-08-07T05:08:59.094Z,2.28
2022-08-07T05:11:27.559Z,2.13
2022-08-07T05:14:52.969Z,2.10
2022-08-07T05:17:12.045Z,2.53
2022-08-07T05:19:45.343Z,2.00
2022-08-07T05:22:26.686Z,2.00
2022-08-07T05:24:59.760Z,2.00
2022-08-07T05:28:05.977Z,2.53
2022-08-07T05:30:15.832Z,2.10
2022-08-07T05:33:00.412Z,2.13
2022-08-07T05:35:33.388Z,2.38
2022-08-07T05:38:08.418Z,2.40
2022-08-07T05:40:50.456Z,2.00
2022-08-07T05:43:18.847Z,2.20
2022-08-07T05:45:48.304Z,2.13
2022-08-07T05:48:18.186Z,2.20
2022-08-07T05:50:53.214Z,2.60
2022-08-07T05:54:13.913Z,2.05
2022-08-07T05:56:08.776Z,2.20
2022-08-07T05:58:41.099Z,2.22
2022-08-07T06:01:18.004Z,2.20
2022-08-07T06:03:53.805Z,2.00
2022-08-07T06:06:24.533Z,1.85
2022-08-07T06:08:57.465Z,2.13
2022-08-07T06:11:25.239Z,2.17
2022-08-07T06:14:12.401Z,2.30
2022-08-07T06:16:40.546Z,2.30
2022-08-07T06:19:18.017Z,2.03
2022-08-07T06:24:53.267Z,1.90
2022-08-07T06:27:44.427Z,1.95
2022-08-07T06:30:32.311Z,2.10
2022-08-07T06:33:00.811Z,2.00
2022-08-07T06:35:30.515Z,2.20
2022-08-07T06:38:09.973Z,1.90
2022-08-07T06:40:49.584Z,2.13
2022-08-07T06:43:21.697Z,1.92
2022-08-07T06:45:49.499Z,2.00
2022-08-07T06:48:24.730Z,2.10
2022-08-07T06:50:54.831Z,2.15
2022-08-07T06:55:27.435Z,2.20
2022-08-07T06:56:14.814Z,1.80
2022-08-07T07:00:13.715Z,1.90
2022-08-07T07:01:43.879Z,2.15
2022-08-07T07:04:28.303Z,2.20
2022-08-07T07:07:19.035Z,2.08
2022-08-07T07:12:33.386Z,2.13
2022-08-07T07:15:04.974Z,2.40
2022-08-07T07:17:45.365Z,1.95
2022-08-07T07:20:20.389Z,1.90
2022-08-07T07:24:08.642Z,2.17
2022-08-07T07:28:42.799Z,2.00
2022-08-07T07:31:21.643Z,2.35
2022-08-07T07:33:56.844Z,2.08
2022-08-07T07:36:32.169Z,2.20
2022-08-07T07:39:02.368Z,2.17
2022-08-07T07:42:02.348Z,2.00
2022-08-07T07:44:25.882Z,2.20
2022-08-07T07:47:02.213Z,2.30
2022-08-07T07:50:33.579Z,2.03
2022-08-07T07:52:33.729Z,2.70
2022-08-07T07:55:03.476Z,2.30
2022-08-07T07:57:50.465Z,2.10
2022-08-07T08:00:28.964Z,2.10
2022-08-07T08:03:05.705Z,2.00
2022-08-07T08:05:50.487Z,2.10
2022-08-07T08:11:05.943Z,2.03
2022-08-07T08:13:54.660Z,2.08
2022-08-07T08:16:29.836Z,2.03
2022-08-07T08:19:00.478Z,1.75
2022-08-07T08:22:00.745Z,1.75
2022-08-07T08:24:36.586Z,1.90
2022-08-07T08:27:16.761Z,1.95
2022-08-07T08:29:55.470Z,1.80
2022-08-07T08:32:38.656Z,2.00
2022-08-07T08:35:09.998Z,2.10
2022-08-07T08:38:01.095Z,1.80
2022-08-07T08:40:30.348Z,1.90
2022-08-07T08:43:08.976Z,1.90
2022-08-07T08:45:41.499Z,1.98
2022-08-07T08:48:36.219Z,2.00
2022-08-07T08:51:14.565Z,2.33
2022-08-07T08:54:00.880Z,2.10
2022-08-07T08:56:33.047Z,2.35
2022-08-07T08:59:13.481Z,1.95
2022-08-07T09:01:49.051Z,1.80
2022-08-07T09:04:30.118Z,1.95
2022-08-07T09:07:01.965Z,2.00
2022-08-07T09:09:47.487Z,2.20
2022-08-07T09:12:35.092Z,1.98
2022-08-07T09:16:20.151Z,1.98
2022-08-07T09:18:41.039Z,1.90
2022-08-07T09:21:34.152Z,1.70
2022-08-07T09:24:59.072Z,2.17
2022-08-07T09:27:28.926Z,2.00
2022-08-07T09:30:08.544Z,2.03
2022-08-07T09:32:54.220Z,1.88
2022-08-07T09:36:04.671Z,2.30
2022-08-07T09:38:25.504Z,2.08
2022-08-07T09:41:03.571Z,2.30
2022-08-07T09:44:06.915Z,2.30
2022-08-07T09:47:42.380Z,2.20
2022-08-07T09:50:01.045Z,2.25
2022-08-07T09:52:39.331Z,2.60
2022-08-07T09:55:17.362Z,2.20
2022-08-07T09:58:32.001Z,2.35
2022-08-07T10:01:14.874Z,2.58
2022-08-07T10:04:27.920Z,2.30
2022-08-07T10:07:25.930Z,2.50
2022-08-07T10:10:03.337Z,2.20
2022-08-07T10:12:53.091Z,2.50
2022-08-07T10:15:37.854Z,2.50
2022-08-07T10:18:30.128Z,2.38
2022-08-07T10:21:50.392Z,2.30
2022-08-07T10:24:39.574Z,2.55
2022-08-07T10:27:20.377Z,2.47
2022-08-07T10:30:06.414Z,2.50
2022-08-07T10:33:02.877Z,2.60
2022-08-07T10:35:56.373Z,2.47
2022-08-07T10:38:48.169Z,2.50
2022-08-07T10:41:47.454Z,2.20
2022-08-07T10:44:19.299Z,2.88
2022-08-07T10:47:01.999Z,2.75
2022-08-07T10:49:49.444Z,2.25
2022-08-07T10:52:31.736Z,2.37
2022-08-07T10:55:27.040Z,2.67
2022-08-07T10:58:15.421Z,2.70
2022-08-07T11:00:56.041Z,2.65
2022-08-07T11:03:37.283Z,2.70
2022-08-07T11:06:11.267Z,2.42
2022-08-07T11:08:52.844Z,2.80
2022-08-07T11:11:25.352Z,2.40
2022-08-07T11:14:43.940Z,2.40
2022-08-07T11:16:54.806Z,2.40
2022-08-07T11:19:30.834Z,2.20
2022-08-07T11:22:11.128Z,2.70
2022-08-07T11:30:18.380Z,2.90
2022-08-07T11:33:02.312Z,2.40
2022-08-07T11:35:58.896Z,2.70
2022-08-07T11:38:33.360Z,2.60
2022-08-07T11:41:06.015Z,2.50
2022-08-07T11:44:11.484Z,2.60
2022-08-07T11:46:43.215Z,2.10
2022-08-07T11:50:11.450Z,2.80
2022-08-07T11:55:18.573Z,2.60
2022-08-07T11:58:00.878Z,2.30
2022-08-07T12:00:38.084Z,2.70
2022-08-07T12:03:41.390Z,2.40
2022-08-07T12:06:39.808Z,2.90
2022-08-07T12:09:23.380Z,2.65
2022-08-07T12:12:10.267Z,2.70
2022-08-07T12:14:55.409Z,2.55
2022-08-07T12:17:36.583Z,2.70
2022-08-07T12:20:30.380Z,2.30
2022-08-07T12:23:16.351Z,2.03
2022-08-07T12:26:21.533Z,2.40
2022-08-07T12:28:45.191Z,3.10
2022-08-07T12:31:23.691Z,2.60
2022-08-07T12:34:01.211Z,2.40
2022-08-07T12:36:33.725Z,2.50
2022-08-07T12:39:02.874Z,2.53
2022-08-07T12:41:42.861Z,2.50
2022-08-07T12:44:21.309Z,2.50
2022-08-07T12:47:02.717Z,2.70
2022-08-07T12:49:44.697Z,2.90
2022-08-07T12:52:29.357Z,3.10
2022-08-07T12:55:05.526Z,2.60
2022-08-07T12:58:00.207Z,2.63
2022-08-07T13:00:41.730Z,2.30
2022-08-07T13:03:54.970Z,2.60
2022-08-07T13:06:37.040Z,2.70
2022-08-07T13:10:20.115Z,2.90
2022-08-07T13:12:36.379Z,2.88
2022-08-07T13:15:14.329Z,2.80
2022-08-07T13:17:57.842Z,3.13
2022-08-07T13:20:34.154Z,2.92
2022-08-07T13:23:59.932Z,2.80
2022-08-07T13:26:01.616Z,2.58
2022-08-07T13:28:37.834Z,2.70
2022-08-07T13:31:13.478Z,2.85
2022-08-07T13:34:33.415Z,2.80
2022-08-07T13:36:42.195Z,2.40
2022-08-07T13:39:48.926Z,2.90
2022-08-07T13:42:12.216Z,2.50
2022-08-07T13:44:41.984Z,2.50
2022-08-07T13:47:15.063Z,2.80
2022-08-07T13:50:33.660Z,2.70
2022-08-07T13:52:40.865Z,2.70
2022-08-07T13:55:13.185Z,2.90
2022-08-07T13:58:01.951Z,2.40
2022-08-07T14:00:39.599Z,2.90
2022-08-07T14:03:30.055Z,3.10
2022-08-07T14:06:12.019Z,3.05
2022-08-07T14:08:43.956Z,2.35
2022-08-07T14:11:17.294Z,2.50
2022-08-07T14:22:03.957Z,2.30
2022-08-07T14:24:22.877Z,2.40
2022-08-07T14:26:52.227Z,2.72
2022-08-07T14:30:07.694Z,2.63
2022-08-07T14:37:16.295Z,2.60
2022-08-07T14:40:17.391Z,2.65
2022-08-07T14:43:54.703Z,2.57
2022-08-07T14:45:46.592Z,2.40
2022-08-07T14:48:19.758Z,2.70
2022-08-07T14:50:50.951Z,2.80
2022-08-07T14:58:43.786Z,3.00
2022-08-07T15:01:21.982Z,2.90
2022-08-07T15:06:25.229Z,2.20
2022-08-07T15:11:53.124Z,2.42
2022-08-07T15:14:19.389Z,2.60
2022-08-07T15:20:30.931Z,2.80
2022-08-07T15:25:17.356Z,2.40
2022-08-07T15:30:36.153Z,2.10
2022-08-07T15:36:14.416Z,2.30
2022-08-07T15:39:03.517Z,2.50
2022-08-07T15:44:27.160Z,2.60
2022-08-07T15:46:57.447Z,2.45
2022-08-07T15:50:04.268Z,2.60
2022-08-07T15:52:20.902Z,2.80
2022-08-07T15:54:49.425Z,2.70
2022-08-07T16:00:09.198Z,2.90
2022-08-07T16:02:57.890Z,2.42
2022-08-07T16:05:31.162Z,2.53
2022-08-07T16:08:31.591Z,2.58
2022-08-07T16:11:03.988Z,2.60
2022-08-07T16:14:05.344Z,2.50
2022-08-07T16:16:47.719Z,2.97
2022-08-07T16:19:42.541Z,2.72
2022-08-07T16:22:54.298Z,2.70
2022-08-07T16:25:55.006Z,3.05
2022-08-07T16:30:07.390Z,3.00
2022-08-07T16:31:51.922Z,3.00
2022-08-07T16:34:29.465Z,2.90
2022-08-07T16:38:04.608Z,2.88
2022-08-07T16:40:57.266Z,2.70
2022-08-07T16:44:03.788Z,2.90
2022-08-07T16:47:05.582Z,2.45
2022-08-07T16:50:35.962Z,2.97
2022-08-07T16:54:03.165Z,3.00
2022-08-07T16:56:13.279Z,3.00
2022-08-07T16:59:11.364Z,3.13
2022-08-07T17:01:56.648Z,2.67
2022-08-07T17:04:34.477Z,2.83
2022-08-07T17:07:13.588Z,3.53
2022-08-07T17:10:06.029Z,3.25
2022-08-07T17:12:45.421Z,2.80
2022-08-07T17:15:20.772Z,2.85
2022-08-07T17:17:57.088Z,2.75
2022-08-07T17:20:31.748Z,2.58
2022-08-07T17:23:08.768Z,2.97
2022-08-07T17:28:31.388Z,2.92
2022-08-07T17:31:16.250Z,2.50
2022-08-07T17:34:32.505Z,2.85
2022-08-07T17:36:58.065Z,2.80
2022-08-07T17:39:53.141Z,2.70
2022-08-07T17:42:58.140Z,2.63
2022-08-07T17:45:35.933Z,3.05
2022-08-07T17:48:06.596Z,2.67
2022-08-07T17:50:49.199Z,2.30
2022-08-07T17:54:00.772Z,2.70
2022-08-07T17:59:03.391Z,2.33
2022-08-07T18:01:37.374Z,2.53
2022-08-07T18:04:21.690Z,2.55
2022-08-07T18:07:20.479Z,2.42
2022-08-07T18:10:06.471Z,2.40
2022-08-07T18:12:48.022Z,2.40
2022-08-07T18:15:21.615Z,2.63
2022-08-07T18:18:45.477Z,2.42
2022-08-07T18:21:03.338Z,2.17
2022-08-07T18:23:58.468Z,2.58
2022-08-07T18:26:38.970Z,2.10
2022-08-07T18:30:06.027Z,2.13
2022-08-07T18:32:16.904Z,2.10
2022-08-07T18:35:04.042Z,1.85
2022-08-07T18:38:54.814Z,1.90
2022-08-07T18:40:59.867Z,1.80
2022-08-07T18:43:49.507Z,2.20
2022-08-07T18:46:31.993Z,2.17
2022-08-07T18:50:30.474Z,2.20
2022-08-07T18:52:37.582Z,2.20
2022-08-07T18:55:42.804Z,2.00
2022-08-07T18:58:15.121Z,2.30
2022-08-07T19:00:55.021Z,1.83
2022-08-07T19:03:36.124Z,2.10
2022-08-07T19:08:47.111Z,1.30
2022-08-07T19:11:36.226Z,2.10
2022-08-07T19:14:11.890Z,1.88
2022-08-07T19:17:06.661Z,2.10
2022-08-07T19:19:41.571Z,1.92
2022-08-07T19:22:17.628Z,1.80
2022-08-07T19:24:46.255Z,1.52
2022-08-07T19:28:30.006Z,1.70
2022-08-07T19:30:55.426Z,1.85
2022-08-07T19:33:10.126Z,1.52
2022-08-07T19:35:43.800Z,1.58
2022-08-07T19:38:16.747Z,1.70
2022-08-07T19:40:49.579Z,2.03
2022-08-07T19:43:43.108Z,1.60
2022-08-07T19:46:10.690Z,1.80
2022-08-07T19:48:42.878Z,1.70
2022-08-07T19:51:19.177Z,1.88
2022-08-07T19:54:31.743Z,1.77
2022-08-07T19:57:51.733Z,2.00
2022-08-07T19:59:39.783Z,1.50
2022-08-07T20:02:19.147Z,1.70
2022-08-07T20:07:23.741Z,1.60
2022-08-07T20:10:36.713Z,1.70
2022-08-07T20:12:56.792Z,1.80
2022-08-07T20:15:32.766Z,1.40
2022-08-07T20:18:06.129Z,1.80
2022-08-07T20:20:42.095Z,1.70
2022-08-07T20:23:32.727Z,1.60
2022-08-07T20:26:05.354Z,1.50
2022-08-07T20:28:40.031Z,1.60
2022-08-07T20:31:21.005Z,1.73
2022-08-07T20:33:56.856Z,1.60
2022-08-07T20:36:27.199Z,1.60
2022-08-07T20:39:00.678Z,1.90
2022-08-07T20:41:48.602Z,1.63
2022-08-07T20:44:17.970Z,1.63
2022-08-07T20:46:48.365Z,1.95
2022-08-07T20:50:00.247Z,2.33
2022-08-07T20:52:24.575Z,1.80
2022-08-07T20:54:57.016Z,2.03
2022-08-07T20:57:30.143Z,1.67
2022-08-07T21:00:09.802Z,1.73
2022-08-07T21:02:55.271Z,1.90
2022-08-07T21:05:52.879Z,1.67
2022-08-07T21:08:36.372Z,1.67
2022-08-07T21:11:10.867Z,2.00
2022-08-07T21:13:43.599Z,1.90
2022-08-07T21:16:36.427Z,2.03
2022-08-07T21:19:09.256Z,1.80
2022-08-07T21:21:56.709Z,1.70
2022-08-07T21:24:47.980Z,1.50
2022-08-07T21:27:26.458Z,2.13
2022-08-07T21:30:09.161Z,1.92
2022-08-07T21:32:52.130Z,2.20
2022-08-07T21:35:34.311Z,2.22
2022-08-07T21:38:07.868Z,1.83
2022-08-07T21:40:44.686Z,1.77
2022-08-07T21:43:22.906Z,2.00
2022-08-07T21:46:10.533Z,1.80
2022-08-07T21:48:57.003Z,1.98
2022-08-07T21:51:51.777Z,2.00
2022-08-07T21:54:35.852Z,2.20
2022-08-07T21:57:30.924Z,2.00
2022-08-07T22:00:07.386Z,2.08
2022-08-07T22:02:43.279Z,2.20
2022-08-07T22:05:21.785Z,1.67
2022-08-07T22:08:05.528Z,1.92
2022-08-07T22:10:42.441Z,2.10
2022-08-07T22:13:14.356Z,2.20
2022-08-07T22:16:42.598Z,1.88
2022-08-07T22:18:42.015Z,2.10
2022-08-07T22:21:19.193Z,2.00
2022-08-07T22:23:52.660Z,2.08
2022-08-07T22:26:23.452Z,2.25
2022-08-07T22:28:59.684Z,2.22
2022-08-07T22:31:59.329Z,1.92
2022-08-07T22:34:31.729Z,2.13
2022-08-07T22:37:13.452Z,2.00
2022-08-07T22:39:52.713Z,1.98
2022-08-07T22:42:25.826Z,2.13
2022-08-07T22:45:01.969Z,1.98
2022-08-07T22:47:52.193Z,2.03
2022-08-07T22:50:34.014Z,2.30
2022-08-07T22:54:06.338Z,2.00
2022-08-07T22:56:47.364Z,2.20
2022-08-07T22:59:49.770Z,2.13
2022-08-07T23:02:37.307Z,2.20
2022-08-07T23:06:07.450Z,2.33
2022-08-07T23:08:40.953Z,1.88
2022-08-07T23:11:28.607Z,2.35
2022-08-07T23:14:23.449Z,2.08
2022-08-07T23:17:15.745Z,2.20
2022-08-07T23:19:58.003Z,2.10
2022-08-07T23:22:39.209Z,2.10
2022-08-07T23:25:28.156Z,2.03
2022-08-07T23:28:28.992Z,2.17
2022-08-07T23:31:13.701Z,1.90
2022-08-07T23:34:34.604Z,2.10
2022-08-07T23:37:19.877Z,2.10
2022-08-07T23:40:06.152Z,1.90
2022-08-07T23:42:49.603Z,2.10
2022-08-07T23:46:01.303Z,1.73
2022-08-07T23:48:43.482Z,2.15
2022-08-07T23:53:05.572Z,2.00
2022-08-07T23:54:19.676Z,2.03
2022-08-07T23:57:09.158Z,2.03
